< < Back
Terminal Aerodrome Forecast


Current Version              Previous Versions:   1  2  3  4  5  6  7  8  9  

Terminal Aerodrome Forecast

425
FTUS44 KBMX 021704 AAA
TAFMGM
TAF AMD
KMGM 021704Z 0217/0312 25010G17KT P6SM SCT040 BKN150
     FM022000 25010KT P6SM VCTS BKN040CB
     FM030000 20010KT P6SM SCT025 BKN200=

Latest METAR

671
SAUS80 KWBC 032000 RRA
MTRMGM
METAR KMGM 031953Z VRB05KT 10SM FEW045 33/22 A3002 RMK AO2 SLP161
T03280222


USA.gov is the U.S. government's official web portal to all federal, state and local government web resources and services.